sensor_id;sensor_type;location;lat;lon;timestamp;temperature;humidity
69281;SHT31;56392;51.082;17.080;2022-07-10T00:00:58;17.62;67.52
69281;SHT31;56392;51.082;17.080;2022-07-10T00:06:00;17.66;68.06
69281;SHT31;56392;51.082;17.080;2022-07-10T00:11:05;17.52;68.74
69281;SHT31;56392;51.082;17.080;2022-07-10T00:16:08;17.67;68.26
69281;SHT31;56392;51.082;17.080;2022-07-10T00:21:11;17.70;68.76
69281;SHT31;56392;51.082;17.080;2022-07-10T00:26:15;17.53;69.39
69281;SHT31;56392;51.082;17.080;2022-07-10T00:31:18;17.33;70.51
69281;SHT31;56392;51.082;17.080;2022-07-10T00:36:20;17.32;70.22
69281;SHT31;56392;51.082;17.080;2022-07-10T00:41:24;17.19;70.60
69281;SHT31;56392;51.082;17.080;2022-07-10T00:46:28;17.26;70.70
69281;SHT31;56392;51.082;17.080;2022-07-10T00:51:31;17.19;70.80
69281;SHT31;56392;51.082;17.080;2022-07-10T00:56:36;16.95;71.88
69281;SHT31;56392;51.082;17.080;2022-07-10T01:01:39;16.91;72.28
69281;SHT31;56392;51.082;17.080;2022-07-10T01:06:41;17.07;71.30
69281;SHT31;56392;51.082;17.080;2022-07-10T01:11:46;17.19;71.29
69281;SHT31;56392;51.082;17.080;2022-07-10T01:16:49;17.25;70.90
69281;SHT31;56392;51.082;17.080;2022-07-10T01:21:54;17.08;71.68
69281;SHT31;56392;51.082;17.080;2022-07-10T01:26:57;16.87;72.65
69281;SHT31;56392;51.082;17.080;2022-07-10T01:31:59;16.87;72.89
69281;SHT31;56392;51.082;17.080;2022-07-10T01:37:04;16.68;73.50
69281;SHT31;56392;51.082;17.080;2022-07-10T01:42:07;16.44;75.09
69281;SHT31;56392;51.082;17.080;2022-07-10T01:47:09;16.68;73.49
69281;SHT31;56392;51.082;17.080;2022-07-10T01:52:13;16.67;73.47
69281;SHT31;56392;51.082;17.080;2022-07-10T01:57:19;16.61;74.48
69281;SHT31;56392;51.082;17.080;2022-07-10T02:02:21;16.65;73.52
69281;SHT31;56392;51.082;17.080;2022-07-10T02:07:25;16.39;74.81
69281;SHT31;56392;51.082;17.080;2022-07-10T02:12:28;16.20;75.13
69281;SHT31;56392;51.082;17.080;2022-07-10T02:17:31;16.03;76.51
69281;SHT31;56392;51.082;17.080;2022-07-10T02:22:35;16.17;75.42
69281;SHT31;56392;51.082;17.080;2022-07-10T02:27:38;16.10;75.32
69281;SHT31;56392;51.082;17.080;2022-07-10T02:32:41;15.98;75.64
69281;SHT31;56392;51.082;17.080;2022-07-10T02:37:45;16.12;75.15
69281;SHT31;56392;51.082;17.080;2022-07-10T02:42:47;16.20;74.40
69281;SHT31;56392;51.082;17.080;2022-07-10T02:47:50;16.32;73.79
69281;SHT31;56392;51.082;17.080;2022-07-10T02:52:54;16.17;74.20
69281;SHT31;56392;51.082;17.080;2022-07-10T02:57:58;16.46;72.77
69281;SHT31;56392;51.082;17.080;2022-07-10T03:03:01;16.43;72.66
69281;SHT31;56392;51.082;17.080;2022-07-10T03:08:06;16.51;71.81
69281;SHT31;56392;51.082;17.080;2022-07-10T03:13:09;16.51;71.42
69281;SHT31;56392;51.082;17.080;2022-07-10T03:18:11;16.49;71.00
69281;SHT31;56392;51.082;17.080;2022-07-10T03:23:15;16.36;71.23
69281;SHT31;56392;51.082;17.080;2022-07-10T03:28:18;16.12;71.77
69281;SHT31;56392;51.082;17.080;2022-07-10T03:33:21;16.30;70.94
69281;SHT31;56392;51.082;17.080;2022-07-10T03:38:25;16.24;71.03
69281;SHT31;56392;51.082;17.080;2022-07-10T03:43:27;16.20;70.99
69281;SHT31;56392;51.082;17.080;2022-07-10T03:48:30;16.08;71.06
69281;SHT31;56392;51.082;17.080;2022-07-10T03:53:34;16.43;69.98
69281;SHT31;56392;51.082;17.080;2022-07-10T03:58:37;16.49;69.23
69281;SHT31;56392;51.082;17.080;2022-07-10T04:03:40;16.92;67.99
69281;SHT31;56392;51.082;17.080;2022-07-10T04:08:47;16.95;67.08
69281;SHT31;56392;51.082;17.080;2022-07-10T04:13:49;16.98;67.14
69281;SHT31;56392;51.082;17.080;2022-07-10T04:18:52;17.02;66.75
69281;SHT31;56392;51.082;17.080;2022-07-10T04:23:59;17.05;67.25
69281;SHT31;56392;51.082;17.080;2022-07-10T04:29:01;17.08;66.09
69281;SHT31;56392;51.082;17.080;2022-07-10T04:34:04;17.31;65.88
69281;SHT31;56392;51.082;17.080;2022-07-10T04:39:08;17.63;64.83
69281;SHT31;56392;51.082;17.080;2022-07-10T04:44:11;17.66;64.94
69281;SHT31;56392;51.082;17.080;2022-07-10T04:49:14;17.47;66.22
69281;SHT31;56392;51.082;17.080;2022-07-10T04:54:18;17.21;66.16
69281;SHT31;56392;51.082;17.080;2022-07-10T04:59:20;17.22;66.12
69281;SHT31;56392;51.082;17.080;2022-07-10T05:04:23;17.23;65.89
69281;SHT31;56392;51.082;17.080;2022-07-10T05:09:27;17.32;65.22
69281;SHT31;56392;51.082;17.080;2022-07-10T05:14:29;17.57;64.57
69281;SHT31;56392;51.082;17.080;2022-07-10T05:19:32;18.01;63.28
69281;SHT31;56392;51.082;17.080;2022-07-10T05:24:36;17.84;63.80
69281;SHT31;56392;51.082;17.080;2022-07-10T05:29:39;17.74;63.69
69281;SHT31;56392;51.082;17.080;2022-07-10T05:34:42;18.11;62.74
69281;SHT31;56392;51.082;17.080;2022-07-10T05:39:45;18.08;62.32
69281;SHT31;56392;51.082;17.080;2022-07-10T05:44:48;18.17;61.61
69281;SHT31;56392;51.082;17.080;2022-07-10T05:49:50;18.27;61.10
69281;SHT31;56392;51.082;17.080;2022-07-10T05:54:55;18.42;59.34
69281;SHT31;56392;51.082;17.080;2022-07-10T05:59:58;18.72;58.26
69281;SHT31;56392;51.082;17.080;2022-07-10T06:05:00;19.22;55.75
69281;SHT31;56392;51.082;17.080;2022-07-10T06:10:06;19.60;54.45
69281;SHT31;56392;51.082;17.080;2022-07-10T06:15:09;19.78;53.33
69281;SHT31;56392;51.082;17.080;2022-07-10T06:20:12;21.27;50.64
69281;SHT31;56392;51.082;17.080;2022-07-10T06:25:17;21.35;51.01
69281;SHT31;56392;51.082;17.080;2022-07-10T06:30:19;21.04;51.37
69281;SHT31;56392;51.082;17.080;2022-07-10T06:35:24;20.15;51.32
69281;SHT31;56392;51.082;17.080;2022-07-10T06:40:29;20.33;51.13
69281;SHT31;56392;51.082;17.080;2022-07-10T06:45:31;19.63;52.26
69281;SHT31;56392;51.082;17.080;2022-07-10T06:50:34;21.88;47.20
69281;SHT31;56392;51.082;17.080;2022-07-10T06:55:39;24.04;41.53
69281;SHT31;56392;51.082;17.080;2022-07-10T07:00:41;24.03;42.44
69281;SHT31;56392;51.082;17.080;2022-07-10T07:05:44;22.58;44.69
69281;SHT31;56392;51.082;17.080;2022-07-10T07:10:48;20.73;49.70
69281;SHT31;56392;51.082;17.080;2022-07-10T07:15:50;20.29;50.45
69281;SHT31;56392;51.082;17.080;2022-07-10T07:21:00;19.86;50.64
69281;SHT31;56392;51.082;17.080;2022-07-10T07:26:21;19.33;51.57
69281;SHT31;56392;51.082;17.080;2022-07-10T07:31:23;19.53;51.57
69281;SHT31;56392;51.082;17.080;2022-07-10T07:36:26;19.58;51.76
69281;SHT31;56392;51.082;17.080;2022-07-10T07:41:30;19.06;53.02
69281;SHT31;56392;51.082;17.080;2022-07-10T07:46:34;19.20;52.98
69281;SHT31;56392;51.082;17.080;2022-07-10T07:51:36;18.99;52.86
69281;SHT31;56392;51.082;17.080;2022-07-10T07:56:40;19.49;51.87
69281;SHT31;56392;51.082;17.080;2022-07-10T08:01:43;20.35;49.91
69281;SHT31;56392;51.082;17.080;2022-07-10T08:06:46;20.84;49.03
69281;SHT31;56392;51.082;17.080;2022-07-10T08:11:50;20.37;49.60
69281;SHT31;56392;51.082;17.080;2022-07-10T08:16:53;19.67;51.34
69281;SHT31;56392;51.082;17.080;2022-07-10T08:21:55;20.40;49.73
69281;SHT31;56392;51.082;17.080;2022-07-10T08:27:00;20.90;49.05
69281;SHT31;56392;51.082;17.080;2022-07-10T08:32:03;21.37;46.42
69281;SHT31;56392;51.082;17.080;2022-07-10T08:37:06;20.93;47.58
69281;SHT31;56392;51.082;17.080;2022-07-10T08:42:11;20.11;50.81
69281;SHT31;56392;51.082;17.080;2022-07-10T08:47:14;19.82;51.64
69281;SHT31;56392;51.082;17.080;2022-07-10T08:52:26;19.34;47.95
69281;SHT31;56392;51.082;17.080;2022-07-10T08:57:30;19.55;49.91
69281;SHT31;56392;51.082;17.080;2022-07-10T09:02:34;19.38;50.43
69281;SHT31;56392;51.082;17.080;2022-07-10T09:07:37;19.82;49.87
69281;SHT31;56392;51.082;17.080;2022-07-10T09:12:52;20.40;49.79
69281;SHT31;56392;51.082;17.080;2022-07-10T09:17:56;20.97;48.41
69281;SHT31;56392;51.082;17.080;2022-07-10T09:23:11;20.12;49.14
69281;SHT31;56392;51.082;17.080;2022-07-10T09:28:19;19.67;51.17
69281;SHT31;56392;51.082;17.080;2022-07-10T09:33:22;20.73;49.81
69281;SHT31;56392;51.082;17.080;2022-07-10T09:38:52;21.32;47.45
69281;SHT31;56392;51.082;17.080;2022-07-10T09:43:58;20.47;46.72
69281;SHT31;56392;51.082;17.080;2022-07-10T09:49:04;20.39;46.80
69281;SHT31;56392;51.082;17.080;2022-07-10T09:54:09;20.39;46.62
69281;SHT31;56392;51.082;17.080;2022-07-10T09:59:14;20.30;46.18
69281;SHT31;56392;51.082;17.080;2022-07-10T10:04:18;20.36;46.11
69281;SHT31;56392;51.082;17.080;2022-07-10T10:09:23;20.52;47.27
69281;SHT31;56392;51.082;17.080;2022-07-10T10:14:29;20.12;47.40
69281;SHT31;56392;51.082;17.080;2022-07-10T10:19:31;21.00;46.44
69281;SHT31;56392;51.082;17.080;2022-07-10T10:24:54;21.24;45.37
69281;SHT31;56392;51.082;17.080;2022-07-10T10:29:58;21.59;45.32
69281;SHT31;56392;51.082;17.080;2022-07-10T10:35:02;20.30;46.35
69281;SHT31;56392;51.082;17.080;2022-07-10T10:40:09;20.04;48.72
69281;SHT31;56392;51.082;17.080;2022-07-10T10:45:30;19.81;50.37
69281;SHT31;56392;51.082;17.080;2022-07-10T10:50:38;19.95;51.50
69281;SHT31;56392;51.082;17.080;2022-07-10T10:55:52;20.62;49.98
69281;SHT31;56392;51.082;17.080;2022-07-10T11:01:28;21.17;49.33
69281;SHT31;56392;51.082;17.080;2022-07-10T11:06:41;21.85;48.38
69281;SHT31;56392;51.082;17.080;2022-07-10T11:11:44;21.32;48.74
69281;SHT31;56392;51.082;17.080;2022-07-10T11:17:00;19.57;49.81
69281;SHT31;56392;51.082;17.080;2022-07-10T11:22:35;19.23;51.80
69281;SHT31;56392;51.082;17.080;2022-07-10T11:28:00;19.12;51.51
69281;SHT31;56392;51.082;17.080;2022-07-10T11:33:10;19.96;49.38
69281;SHT31;56392;51.082;17.080;2022-07-10T11:38:12;20.64;48.96
69281;SHT31;56392;51.082;17.080;2022-07-10T11:43:15;20.52;47.61
69281;SHT31;56392;51.082;17.080;2022-07-10T11:48:23;19.89;50.47
69281;SHT31;56392;51.082;17.080;2022-07-10T11:53:26;19.37;53.64
69281;SHT31;56392;51.082;17.080;2022-07-10T11:58:30;18.76;56.66
69281;SHT31;56392;51.082;17.080;2022-07-10T12:03:34;18.72;55.51
69281;SHT31;56392;51.082;17.080;2022-07-10T12:08:44;18.55;63.42
69281;SHT31;56392;51.082;17.080;2022-07-10T12:13:48;18.35;65.66
69281;SHT31;56392;51.082;17.080;2022-07-10T12:18:53;18.56;61.60
69281;SHT31;56392;51.082;17.080;2022-07-10T12:23:57;19.17;60.95
69281;SHT31;56392;51.082;17.080;2022-07-10T12:29:00;19.55;64.34
69281;SHT31;56392;51.082;17.080;2022-07-10T12:34:05;20.01;59.22
69281;SHT31;56392;51.082;17.080;2022-07-10T12:39:09;20.08;57.61
69281;SHT31;56392;51.082;17.080;2022-07-10T12:44:12;19.75;58.79
69281;SHT31;56392;51.082;17.080;2022-07-10T12:49:16;19.89;55.22
69281;SHT31;56392;51.082;17.080;2022-07-10T12:54:35;19.55;56.01
69281;SHT31;56392;51.082;17.080;2022-07-10T12:59:38;18.85;61.39
69281;SHT31;56392;51.082;17.080;2022-07-10T13:04:55;18.14;65.23
69281;SHT31;56392;51.082;17.080;2022-07-10T13:09:59;17.77;68.45
69281;SHT31;56392;51.082;17.080;2022-07-10T13:15:04;17.93;68.76
69281;SHT31;56392;51.082;17.080;2022-07-10T13:20:09;18.49;68.03
69281;SHT31;56392;51.082;17.080;2022-07-10T13:25:12;18.79;68.25
69281;SHT31;56392;51.082;17.080;2022-07-10T13:30:15;19.07;62.60
69281;SHT31;56392;51.082;17.080;2022-07-10T13:35:18;19.22;61.95
69281;SHT31;56392;51.082;17.080;2022-07-10T13:40:23;19.41;59.86
69281;SHT31;56392;51.082;17.080;2022-07-10T13:45:26;19.43;58.01
69281;SHT31;56392;51.082;17.080;2022-07-10T13:50:35;19.33;56.18
69281;SHT31;56392;51.082;17.080;2022-07-10T13:55:39;19.41;56.58
69281;SHT31;56392;51.082;17.080;2022-07-10T14:00:42;19.30;53.24
69281;SHT31;56392;51.082;17.080;2022-07-10T14:05:48;19.57;54.87
69281;SHT31;56392;51.082;17.080;2022-07-10T14:10:51;19.51;54.95
69281;SHT31;56392;51.082;17.080;2022-07-10T14:15:54;19.78;52.67
69281;SHT31;56392;51.082;17.080;2022-07-10T14:20:58;19.74;52.06
69281;SHT31;56392;51.082;17.080;2022-07-10T14:26:09;19.50;49.45
69281;SHT31;56392;51.082;17.080;2022-07-10T14:31:13;19.85;52.22
69281;SHT31;56392;51.082;17.080;2022-07-10T14:36:17;19.88;49.43
69281;SHT31;56392;51.082;17.080;2022-07-10T14:41:19;19.92;50.67
69281;SHT31;56392;51.082;17.080;2022-07-10T14:46:22;19.88;50.51
69281;SHT31;56392;51.082;17.080;2022-07-10T14:51:26;20.09;49.73
69281;SHT31;56392;51.082;17.080;2022-07-10T14:56:30;20.05;46.21
69281;SHT31;56392;51.082;17.080;2022-07-10T15:01:33;20.14;47.09
69281;SHT31;56392;51.082;17.080;2022-07-10T15:06:37;20.18;47.43
69281;SHT31;56392;51.082;17.080;2022-07-10T15:11:40;19.92;48.93
69281;SHT31;56392;51.082;17.080;2022-07-10T15:16:43;19.65;50.04
69281;SHT31;56392;51.082;17.080;2022-07-10T15:21:47;19.74;50.60
69281;SHT31;56392;51.082;17.080;2022-07-10T15:26:49;19.50;51.77
69281;SHT31;56392;51.082;17.080;2022-07-10T15:31:52;19.34;52.15
69281;SHT31;56392;51.082;17.080;2022-07-10T15:36:56;19.50;52.25
69281;SHT31;56392;51.082;17.080;2022-07-10T15:41:59;19.65;52.98
69281;SHT31;56392;51.082;17.080;2022-07-10T15:47:01;19.67;52.28
69281;SHT31;56392;51.082;17.080;2022-07-10T15:52:06;19.43;52.05
69281;SHT31;56392;51.082;17.080;2022-07-10T15:57:09;19.51;52.05
69281;SHT31;56392;51.082;17.080;2022-07-10T16:02:13;19.78;51.47
69281;SHT31;56392;51.082;17.080;2022-07-10T16:07:17;19.79;50.00
69281;SHT31;56392;51.082;17.080;2022-07-10T16:12:20;19.58;50.90
69281;SHT31;56392;51.082;17.080;2022-07-10T16:17:22;19.64;50.94
69281;SHT31;56392;51.082;17.080;2022-07-10T16:22:26;19.73;50.96
69281;SHT31;56392;51.082;17.080;2022-07-10T16:27:29;19.81;50.00
69281;SHT31;56392;51.082;17.080;2022-07-10T16:32:31;19.77;48.13
69281;SHT31;56392;51.082;17.080;2022-07-10T16:37:36;19.81;49.06
69281;SHT31;56392;51.082;17.080;2022-07-10T16:42:38;19.51;47.59
69281;SHT31;56392;51.082;17.080;2022-07-10T16:47:41;19.63;47.90
69281;SHT31;56392;51.082;17.080;2022-07-10T16:52:45;19.43;48.80
69281;SHT31;56392;51.082;17.080;2022-07-10T16:57:49;19.44;49.20
69281;SHT31;56392;51.082;17.080;2022-07-10T17:02:51;19.27;49.13
69281;SHT31;56392;51.082;17.080;2022-07-10T17:07:56;19.13;49.29
69281;SHT31;56392;51.082;17.080;2022-07-10T17:12:58;19.12;49.83
69281;SHT31;56392;51.082;17.080;2022-07-10T17:18:02;19.13;50.60
69281;SHT31;56392;51.082;17.080;2022-07-10T17:23:07;19.13;50.26
69281;SHT31;56392;51.082;17.080;2022-07-10T17:28:12;19.19;50.24
69281;SHT31;56392;51.082;17.080;2022-07-10T17:33:14;19.20;50.36
69281;SHT31;56392;51.082;17.080;2022-07-10T17:38:18;19.19;50.10
69281;SHT31;56392;51.082;17.080;2022-07-10T17:43:23;19.17;49.24
69281;SHT31;56392;51.082;17.080;2022-07-10T17:48:25;19.03;49.29
69281;SHT31;56392;51.082;17.080;2022-07-10T17:53:30;18.96;50.18
69281;SHT31;56392;51.082;17.080;2022-07-10T17:58:33;18.91;50.16
69281;SHT31;56392;51.082;17.080;2022-07-10T18:03:36;18.88;50.65
69281;SHT31;56392;51.082;17.080;2022-07-10T18:08:40;18.79;49.92
69281;SHT31;56392;51.082;17.080;2022-07-10T18:13:46;18.69;50.43
69281;SHT31;56392;51.082;17.080;2022-07-10T18:18:50;18.68;51.38
69281;SHT31;56392;51.082;17.080;2022-07-10T18:23:54;18.63;52.18
69281;SHT31;56392;51.082;17.080;2022-07-10T18:29:00;18.47;52.54
69281;SHT31;56392;51.082;17.080;2022-07-10T18:34:03;18.48;51.68
69281;SHT31;56392;51.082;17.080;2022-07-10T18:39:25;18.68;52.16
69281;SHT31;56392;51.082;17.080;2022-07-10T18:44:27;18.56;51.84
69281;SHT31;56392;51.082;17.080;2022-07-10T18:49:30;18.52;51.85
69281;SHT31;56392;51.082;17.080;2022-07-10T18:54:34;18.47;53.21
69281;SHT31;56392;51.082;17.080;2022-07-10T18:59:37;18.37;53.59
69281;SHT31;56392;51.082;17.080;2022-07-10T19:04:40;18.25;55.01
69281;SHT31;56392;51.082;17.080;2022-07-10T19:10:19;18.27;54.48
69281;SHT31;56392;51.082;17.080;2022-07-10T19:15:35;18.31;55.21
69281;SHT31;56392;51.082;17.080;2022-07-10T19:20:42;18.24;55.83
69281;SHT31;56392;51.082;17.080;2022-07-10T19:26:23;18.15;56.76
69281;SHT31;56392;51.082;17.080;2022-07-10T19:32:03;18.07;56.27
69281;SHT31;56392;51.082;17.080;2022-07-10T19:37:42;18.10;55.47
69281;SHT31;56392;51.082;17.080;2022-07-10T19:43:28;18.13;54.96
69281;SHT31;56392;51.082;17.080;2022-07-10T19:48:31;18.10;55.90
69281;SHT31;56392;51.082;17.080;2022-07-10T19:53:34;18.10;55.52
69281;SHT31;56392;51.082;17.080;2022-07-10T19:58:42;18.04;54.21
69281;SHT31;56392;51.082;17.080;2022-07-10T20:03:46;18.01;54.44
69281;SHT31;56392;51.082;17.080;2022-07-10T20:08:50;18.00;57.08
69281;SHT31;56392;51.082;17.080;2022-07-10T20:13:54;17.89;57.91
69281;SHT31;56392;51.082;17.080;2022-07-10T20:18:57;17.32;63.73
69281;SHT31;56392;51.082;17.080;2022-07-10T20:24:00;17.10;66.61
69281;SHT31;56392;51.082;17.080;2022-07-10T20:29:05;16.89;66.59
69281;SHT31;56392;51.082;17.080;2022-07-10T20:34:08;16.95;68.20
69281;SHT31;56392;51.082;17.080;2022-07-10T20:39:11;16.56;73.34
69281;SHT31;56392;51.082;17.080;2022-07-10T20:44:19;16.14;75.33
69281;SHT31;56392;51.082;17.080;2022-07-10T20:49:22;15.82;76.18
69281;SHT31;56392;51.082;17.080;2022-07-10T20:54:27;15.85;75.53
69281;SHT31;56392;51.082;17.080;2022-07-10T20:59:31;15.86;75.73
69281;SHT31;56392;51.082;17.080;2022-07-10T21:04:39;15.92;77.87
69281;SHT31;56392;51.082;17.080;2022-07-10T21:09:41;15.98;76.54
69281;SHT31;56392;51.082;17.080;2022-07-10T21:14:45;16.05;76.65
69281;SHT31;56392;51.082;17.080;2022-07-10T21:19:48;15.85;77.51
69281;SHT31;56392;51.082;17.080;2022-07-10T21:24:51;15.81;77.77
69281;SHT31;56392;51.082;17.080;2022-07-10T21:29:54;15.78;77.78
69281;SHT31;56392;51.082;17.080;2022-07-10T21:34:57;15.68;77.54
69281;SHT31;56392;51.082;17.080;2022-07-10T21:40:03;15.72;77.80
69281;SHT31;56392;51.082;17.080;2022-07-10T21:45:08;15.69;78.32
69281;SHT31;56392;51.082;17.080;2022-07-10T21:50:12;15.62;79.22
69281;SHT31;56392;51.082;17.080;2022-07-10T21:55:15;15.68;79.42
69281;SHT31;56392;51.082;17.080;2022-07-10T22:00:19;15.69;78.79
69281;SHT31;56392;51.082;17.080;2022-07-10T22:05:24;15.65;79.13
69281;SHT31;56392;51.082;17.080;2022-07-10T22:10:26;15.71;79.02
69281;SHT31;56392;51.082;17.080;2022-07-10T22:15:30;15.72;78.97
69281;SHT31;56392;51.082;17.080;2022-07-10T22:20:35;15.68;79.19
69281;SHT31;56392;51.082;17.080;2022-07-10T22:25:38;15.55;79.29
69281;SHT31;56392;51.082;17.080;2022-07-10T22:30:42;15.24;80.89
69281;SHT31;56392;51.082;17.080;2022-07-10T22:36:12;15.40;78.87
69281;SHT31;56392;51.082;17.080;2022-07-10T22:41:16;15.45;78.85
69281;SHT31;56392;51.082;17.080;2022-07-10T22:46:20;15.61;78.30
69281;SHT31;56392;51.082;17.080;2022-07-10T22:51:26;15.59;78.17
69281;SHT31;56392;51.082;17.080;2022-07-10T22:56:29;15.69;77.39
69281;SHT31;56392;51.082;17.080;2022-07-10T23:01:33;15.68;77.92
69281;SHT31;56392;51.082;17.080;2022-07-10T23:06:36;15.54;78.26
69281;SHT31;56392;51.082;17.080;2022-07-10T23:11:38;15.47;79.16
69281;SHT31;56392;51.082;17.080;2022-07-10T23:16:43;15.42;79.73
69281;SHT31;56392;51.082;17.080;2022-07-10T23:21:45;15.27;79.15
69281;SHT31;56392;51.082;17.080;2022-07-10T23:26:48;15.23;80.25
69281;SHT31;56392;51.082;17.080;2022-07-10T23:31:52;15.35;79.33
69281;SHT31;56392;51.082;17.080;2022-07-10T23:36:54;15.41;79.62
69281;SHT31;56392;51.082;17.080;2022-07-10T23:41:57;15.38;79.51
69281;SHT31;56392;51.082;17.080;2022-07-10T23:47:01;15.41;79.37
69281;SHT31;56392;51.082;17.080;2022-07-10T23:52:04;15.54;79.83
69281;SHT31;56392;51.082;17.080;2022-07-10T23:57:08;15.54;79.43
